sensor_id;sensor_type;location;lat;lon;timestamp;P1;durP1;ratioP1;P2;durP2;ratioP2
76292;SDS011;67256;51.154;4.164;2024-02-21T00:02:20;17.05;;;5.97;;
76292;SDS011;67256;51.154;4.164;2024-02-21T00:04:46;15.55;;;6.35;;
76292;SDS011;67256;51.154;4.164;2024-02-21T00:07:11;18.25;;;6.13;;
76292;SDS011;67256;51.154;4.164;2024-02-21T00:09:37;16.63;;;6.72;;
76292;SDS011;67256;51.154;4.164;2024-02-21T00:12:03;15.00;;;4.30;;
76292;SDS011;67256;51.154;4.164;2024-02-21T00:14:30;19.58;;;5.95;;
76292;SDS011;67256;51.154;4.164;2024-02-21T00:16:56;12.95;;;5.45;;
76292;SDS011;67256;51.154;4.164;2024-02-21T00:19:22;15.52;;;5.55;;
76292;SDS011;67256;51.154;4.164;2024-02-21T00:21:48;13.88;;;4.95;;
76292;SDS011;67256;51.154;4.164;2024-02-21T00:24:13;11.23;;;5.35;;
76292;SDS011;67256;51.154;4.164;2024-02-21T00:26:39;14.43;;;5.90;;
76292;SDS011;67256;51.154;4.164;2024-02-21T00:29:05;14.85;;;5.00;;
76292;SDS011;67256;51.154;4.164;2024-02-21T00:31:30;16.48;;;5.88;;
76292;SDS011;67256;51.154;4.164;2024-02-21T00:33:57;20.00;;;5.80;;
76292;SDS011;67256;51.154;4.164;2024-02-21T00:36:23;15.57;;;7.80;;
76292;SDS011;67256;51.154;4.164;2024-02-21T00:38:48;13.40;;;5.43;;
76292;SDS011;67256;51.154;4.164;2024-02-21T00:41:14;15.85;;;6.43;;
76292;SDS011;67256;51.154;4.164;2024-02-21T00:43:41;13.02;;;5.60;;
76292;SDS011;67256;51.154;4.164;2024-02-21T00:46:07;17.88;;;5.95;;
76292;SDS011;67256;51.154;4.164;2024-02-21T00:48:33;17.15;;;6.07;;
76292;SDS011;67256;51.154;4.164;2024-02-21T00:50:59;16.38;;;6.15;;
76292;SDS011;67256;51.154;4.164;2024-02-21T00:53:25;15.48;;;6.28;;
76292;SDS011;67256;51.154;4.164;2024-02-21T00:55:50;13.13;;;6.22;;
76292;SDS011;67256;51.154;4.164;2024-02-21T00:58:17;19.63;;;6.65;;
76292;SDS011;67256;51.154;4.164;2024-02-21T01:00:43;18.75;;;6.28;;
76292;SDS011;67256;51.154;4.164;2024-02-21T01:03:08;15.68;;;6.40;;
76292;SDS011;67256;51.154;4.164;2024-02-21T01:05:34;15.40;;;5.50;;
76292;SDS011;67256;51.154;4.164;2024-02-21T01:08:00;16.42;;;6.68;;
76292;SDS011;67256;51.154;4.164;2024-02-21T01:10:25;17.92;;;5.75;;
76292;SDS011;67256;51.154;4.164;2024-02-21T01:12:51;15.93;;;6.53;;
76292;SDS011;67256;51.154;4.164;2024-02-21T01:15:17;14.73;;;6.28;;
76292;SDS011;67256;51.154;4.164;2024-02-21T01:17:43;15.30;;;5.88;;
76292;SDS011;67256;51.154;4.164;2024-02-21T01:20:09;14.85;;;6.07;;
76292;SDS011;67256;51.154;4.164;2024-02-21T01:22:35;15.93;;;5.72;;
76292;SDS011;67256;51.154;4.164;2024-02-21T01:25:00;14.20;;;5.95;;
76292;SDS011;67256;51.154;4.164;2024-02-21T01:27:26;21.40;;;6.68;;
76292;SDS011;67256;51.154;4.164;2024-02-21T01:29:52;14.82;;;5.70;;
76292;SDS011;67256;51.154;4.164;2024-02-21T01:32:18;15.18;;;5.47;;
76292;SDS011;67256;51.154;4.164;2024-02-21T01:34:43;12.60;;;5.75;;
76292;SDS011;67256;51.154;4.164;2024-02-21T01:37:10;15.82;;;6.45;;
76292;SDS011;67256;51.154;4.164;2024-02-21T01:39:36;17.08;;;5.72;;
76292;SDS011;67256;51.154;4.164;2024-02-21T01:42:02;14.00;;;5.72;;
76292;SDS011;67256;51.154;4.164;2024-02-21T01:44:28;15.27;;;5.82;;
76292;SDS011;67256;51.154;4.164;2024-02-21T01:46:54;19.50;;;6.70;;
76292;SDS011;67256;51.154;4.164;2024-02-21T01:49:20;13.13;;;5.95;;
76292;SDS011;67256;51.154;4.164;2024-02-21T01:51:47;13.38;;;5.85;;
76292;SDS011;67256;51.154;4.164;2024-02-21T01:54:13;13.68;;;5.82;;
76292;SDS011;67256;51.154;4.164;2024-02-21T01:56:41;14.18;;;6.80;;
76292;SDS011;67256;51.154;4.164;2024-02-21T01:59:07;22.73;;;7.80;;
76292;SDS011;67256;51.154;4.164;2024-02-21T02:01:33;24.08;;;7.88;;
76292;SDS011;67256;51.154;4.164;2024-02-21T02:03:59;24.15;;;8.32;;
76292;SDS011;67256;51.154;4.164;2024-02-21T02:06:25;23.83;;;8.60;;
76292;SDS011;67256;51.154;4.164;2024-02-21T02:08:51;27.30;;;8.27;;
76292;SDS011;67256;51.154;4.164;2024-02-21T02:11:18;22.02;;;8.98;;
76292;SDS011;67256;51.154;4.164;2024-02-21T02:13:44;21.20;;;9.27;;
76292;SDS011;67256;51.154;4.164;2024-02-21T02:16:09;31.33;;;9.00;;
76292;SDS011;67256;51.154;4.164;2024-02-21T02:18:36;24.58;;;8.55;;
76292;SDS011;67256;51.154;4.164;2024-02-21T02:21:03;26.02;;;8.40;;
76292;SDS011;67256;51.154;4.164;2024-02-21T02:23:33;23.90;;;9.25;;
76292;SDS011;67256;51.154;4.164;2024-02-21T02:25:59;19.88;;;9.85;;
76292;SDS011;67256;51.154;4.164;2024-02-21T02:28:28;22.45;;;8.48;;
76292;SDS011;67256;51.154;4.164;2024-02-21T02:30:54;24.27;;;9.10;;
76292;SDS011;67256;51.154;4.164;2024-02-21T02:33:20;26.90;;;9.60;;
76292;SDS011;67256;51.154;4.164;2024-02-21T02:35:46;19.27;;;8.50;;
76292;SDS011;67256;51.154;4.164;2024-02-21T02:38:12;24.02;;;9.90;;
76292;SDS011;67256;51.154;4.164;2024-02-21T02:40:38;21.02;;;8.52;;
76292;SDS011;67256;51.154;4.164;2024-02-21T02:43:07;28.98;;;10.18;;
76292;SDS011;67256;51.154;4.164;2024-02-21T02:45:34;23.77;;;8.55;;
76292;SDS011;67256;51.154;4.164;2024-02-21T02:47:59;25.27;;;9.68;;
76292;SDS011;67256;51.154;4.164;2024-02-21T02:50:26;31.35;;;9.55;;
76292;SDS011;67256;51.154;4.164;2024-02-21T02:52:53;18.67;;;8.75;;
76292;SDS011;67256;51.154;4.164;2024-02-21T02:55:19;26.23;;;8.85;;
76292;SDS011;67256;51.154;4.164;2024-02-21T02:57:45;24.67;;;8.68;;
76292;SDS011;67256;51.154;4.164;2024-02-21T03:00:12;23.13;;;8.98;;
76292;SDS011;67256;51.154;4.164;2024-02-21T03:02:39;22.30;;;9.80;;
76292;SDS011;67256;51.154;4.164;2024-02-21T03:05:13;20.25;;;8.80;;
76292;SDS011;67256;51.154;4.164;2024-02-21T03:07:40;24.27;;;9.82;;
76292;SDS011;67256;51.154;4.164;2024-02-21T03:10:06;24.70;;;9.00;;
76292;SDS011;67256;51.154;4.164;2024-02-21T03:12:32;26.45;;;9.75;;
76292;SDS011;67256;51.154;4.164;2024-02-21T03:14:58;26.98;;;8.95;;
76292;SDS011;67256;51.154;4.164;2024-02-21T03:17:24;24.27;;;9.73;;
76292;SDS011;67256;51.154;4.164;2024-02-21T03:19:52;23.73;;;9.60;;
76292;SDS011;67256;51.154;4.164;2024-02-21T03:22:17;24.52;;;10.00;;
76292;SDS011;67256;51.154;4.164;2024-02-21T03:24:44;28.05;;;10.43;;
76292;SDS011;67256;51.154;4.164;2024-02-21T03:27:09;27.75;;;9.52;;
76292;SDS011;67256;51.154;4.164;2024-02-21T03:29:35;27.50;;;9.60;;
76292;SDS011;67256;51.154;4.164;2024-02-21T03:32:01;24.95;;;9.50;;
76292;SDS011;67256;51.154;4.164;2024-02-21T03:34:27;23.08;;;9.77;;
76292;SDS011;67256;51.154;4.164;2024-02-21T03:36:52;21.27;;;9.13;;
76292;SDS011;67256;51.154;4.164;2024-02-21T03:39:19;16.92;;;8.60;;
76292;SDS011;67256;51.154;4.164;2024-02-21T03:41:46;24.30;;;8.55;;
76292;SDS011;67256;51.154;4.164;2024-02-21T03:44:12;26.88;;;8.98;;
76292;SDS011;67256;51.154;4.164;2024-02-21T03:46:37;21.88;;;9.55;;
76292;SDS011;67256;51.154;4.164;2024-02-21T03:49:03;20.20;;;9.38;;
76292;SDS011;67256;51.154;4.164;2024-02-21T03:51:29;22.63;;;9.13;;
76292;SDS011;67256;51.154;4.164;2024-02-21T03:53:55;20.23;;;9.02;;
76292;SDS011;67256;51.154;4.164;2024-02-21T03:56:20;19.42;;;9.80;;
76292;SDS011;67256;51.154;4.164;2024-02-21T03:58:46;22.95;;;9.48;;
76292;SDS011;67256;51.154;4.164;2024-02-21T04:01:12;22.98;;;10.23;;
76292;SDS011;67256;51.154;4.164;2024-02-21T04:03:40;23.15;;;8.93;;
76292;SDS011;67256;51.154;4.164;2024-02-21T04:06:05;24.77;;;9.73;;
76292;SDS011;67256;51.154;4.164;2024-02-21T04:08:31;20.70;;;9.52;;
76292;SDS011;67256;51.154;4.164;2024-02-21T04:10:57;19.00;;;9.07;;
76292;SDS011;67256;51.154;4.164;2024-02-21T04:13:22;24.42;;;9.52;;
76292;SDS011;67256;51.154;4.164;2024-02-21T04:15:48;21.02;;;8.90;;
76292;SDS011;67256;51.154;4.164;2024-02-21T04:18:14;23.60;;;9.98;;
76292;SDS011;67256;51.154;4.164;2024-02-21T04:20:40;22.42;;;9.10;;
76292;SDS011;67256;51.154;4.164;2024-02-21T04:23:06;23.30;;;9.50;;
76292;SDS011;67256;51.154;4.164;2024-02-21T04:25:32;21.23;;;10.13;;
76292;SDS011;67256;51.154;4.164;2024-02-21T04:27:57;21.38;;;9.18;;
76292;SDS011;67256;51.154;4.164;2024-02-21T04:30:23;24.60;;;10.50;;
76292;SDS011;67256;51.154;4.164;2024-02-21T04:32:49;18.20;;;9.23;;
76292;SDS011;67256;51.154;4.164;2024-02-21T04:35:14;22.15;;;9.80;;
76292;SDS011;67256;51.154;4.164;2024-02-21T04:37:40;24.58;;;10.02;;
76292;SDS011;67256;51.154;4.164;2024-02-21T04:40:06;20.80;;;10.05;;
76292;SDS011;67256;51.154;4.164;2024-02-21T04:42:32;26.20;;;9.88;;
76292;SDS011;67256;51.154;4.164;2024-02-21T04:44:58;21.45;;;10.27;;
76292;SDS011;67256;51.154;4.164;2024-02-21T04:47:23;22.65;;;10.48;;
76292;SDS011;67256;51.154;4.164;2024-02-21T04:49:50;24.60;;;11.82;;
76292;SDS011;67256;51.154;4.164;2024-02-21T04:52:15;24.20;;;10.15;;
76292;SDS011;67256;51.154;4.164;2024-02-21T04:54:41;17.85;;;10.23;;
76292;SDS011;67256;51.154;4.164;2024-02-21T04:57:07;18.88;;;8.75;;
76292;SDS011;67256;51.154;4.164;2024-02-21T04:59:35;19.52;;;10.25;;
76292;SDS011;67256;51.154;4.164;2024-02-21T05:02:01;19.95;;;10.10;;
76292;SDS011;67256;51.154;4.164;2024-02-21T05:04:27;22.88;;;10.00;;
76292;SDS011;67256;51.154;4.164;2024-02-21T05:06:52;25.38;;;10.40;;
76292;SDS011;67256;51.154;4.164;2024-02-21T05:09:19;21.02;;;10.18;;
76292;SDS011;67256;51.154;4.164;2024-02-21T05:11:46;26.10;;;10.93;;
76292;SDS011;67256;51.154;4.164;2024-02-21T05:14:12;28.27;;;10.55;;
76292;SDS011;67256;51.154;4.164;2024-02-21T05:16:38;27.13;;;10.63;;
76292;SDS011;67256;51.154;4.164;2024-02-21T05:19:05;24.35;;;10.45;;
76292;SDS011;67256;51.154;4.164;2024-02-21T05:21:30;24.83;;;11.32;;
76292;SDS011;67256;51.154;4.164;2024-02-21T05:23:56;20.58;;;9.95;;
76292;SDS011;67256;51.154;4.164;2024-02-21T05:26:25;22.55;;;10.50;;
76292;SDS011;67256;51.154;4.164;2024-02-21T05:28:52;19.20;;;10.98;;
76292;SDS011;67256;51.154;4.164;2024-02-21T05:31:18;21.85;;;10.65;;
76292;SDS011;67256;51.154;4.164;2024-02-21T05:33:45;22.15;;;10.05;;
76292;SDS011;67256;51.154;4.164;2024-02-21T05:36:14;23.98;;;10.35;;
76292;SDS011;67256;51.154;4.164;2024-02-21T05:38:40;24.10;;;10.90;;
76292;SDS011;67256;51.154;4.164;2024-02-21T05:41:06;22.80;;;10.13;;
76292;SDS011;67256;51.154;4.164;2024-02-21T05:43:31;25.17;;;11.40;;
76292;SDS011;67256;51.154;4.164;2024-02-21T05:45:57;20.67;;;10.82;;
76292;SDS011;67256;51.154;4.164;2024-02-21T05:48:23;22.77;;;10.98;;
76292;SDS011;67256;51.154;4.164;2024-02-21T05:50:49;26.55;;;10.60;;
76292;SDS011;67256;51.154;4.164;2024-02-21T05:53:15;19.08;;;10.23;;
76292;SDS011;67256;51.154;4.164;2024-02-21T05:55:41;23.20;;;10.80;;
76292;SDS011;67256;51.154;4.164;2024-02-21T05:58:07;21.98;;;10.95;;
76292;SDS011;67256;51.154;4.164;2024-02-21T06:00:36;23.30;;;10.27;;
76292;SDS011;67256;51.154;4.164;2024-02-21T06:03:02;22.95;;;10.57;;
76292;SDS011;67256;51.154;4.164;2024-02-21T06:05:28;20.83;;;10.95;;
76292;SDS011;67256;51.154;4.164;2024-02-21T06:07:54;23.33;;;10.07;;
76292;SDS011;67256;51.154;4.164;2024-02-21T06:10:20;20.02;;;10.10;;
76292;SDS011;67256;51.154;4.164;2024-02-21T06:12:46;19.25;;;10.38;;
76292;SDS011;67256;51.154;4.164;2024-02-21T06:15:12;18.60;;;10.00;;
76292;SDS011;67256;51.154;4.164;2024-02-21T06:17:38;23.85;;;10.05;;
76292;SDS011;67256;51.154;4.164;2024-02-21T06:20:04;20.30;;;10.02;;
76292;SDS011;67256;51.154;4.164;2024-02-21T06:22:30;24.73;;;10.35;;
76292;SDS011;67256;51.154;4.164;2024-02-21T06:24:56;23.38;;;11.48;;
76292;SDS011;67256;51.154;4.164;2024-02-21T06:27:22;19.33;;;10.15;;
76292;SDS011;67256;51.154;4.164;2024-02-21T06:29:49;21.85;;;10.38;;
76292;SDS011;67256;51.154;4.164;2024-02-21T06:32:15;22.88;;;10.77;;
76292;SDS011;67256;51.154;4.164;2024-02-21T06:34:40;21.17;;;11.15;;
76292;SDS011;67256;51.154;4.164;2024-02-21T06:37:06;18.38;;;10.35;;
76292;SDS011;67256;51.154;4.164;2024-02-21T06:39:32;22.65;;;11.20;;
76292;SDS011;67256;51.154;4.164;2024-02-21T06:41:58;18.63;;;11.07;;
76292;SDS011;67256;51.154;4.164;2024-02-21T06:44:23;22.02;;;10.68;;
76292;SDS011;67256;51.154;4.164;2024-02-21T06:46:49;22.05;;;10.85;;
76292;SDS011;67256;51.154;4.164;2024-02-21T06:49:15;24.95;;;11.77;;
76292;SDS011;67256;51.154;4.164;2024-02-21T06:51:44;18.10;;;10.07;;
76292;SDS011;67256;51.154;4.164;2024-02-21T06:54:09;20.45;;;10.32;;
76292;SDS011;67256;51.154;4.164;2024-02-21T06:56:36;18.05;;;11.75;;
76292;SDS011;67256;51.154;4.164;2024-02-21T06:59:03;18.52;;;9.52;;
76292;SDS011;67256;51.154;4.164;2024-02-21T07:01:31;25.45;;;9.63;;
76292;SDS011;67256;51.154;4.164;2024-02-21T07:03:57;22.05;;;10.27;;
76292;SDS011;67256;51.154;4.164;2024-02-21T07:06:23;26.08;;;10.95;;
76292;SDS011;67256;51.154;4.164;2024-02-21T07:08:49;20.45;;;10.40;;
76292;SDS011;67256;51.154;4.164;2024-02-21T07:11:15;22.65;;;10.45;;
76292;SDS011;67256;51.154;4.164;2024-02-21T07:13:40;20.67;;;9.75;;
76292;SDS011;67256;51.154;4.164;2024-02-21T07:16:06;16.80;;;9.00;;
76292;SDS011;67256;51.154;4.164;2024-02-21T07:18:33;15.50;;;9.57;;
76292;SDS011;67256;51.154;4.164;2024-02-21T07:20:59;18.75;;;9.70;;
76292;SDS011;67256;51.154;4.164;2024-02-21T07:23:25;15.95;;;8.90;;
76292;SDS011;67256;51.154;4.164;2024-02-21T07:25:50;14.70;;;8.57;;
76292;SDS011;67256;51.154;4.164;2024-02-21T07:28:16;16.73;;;8.93;;
76292;SDS011;67256;51.154;4.164;2024-02-21T07:30:42;16.00;;;9.07;;
76292;SDS011;67256;51.154;4.164;2024-02-21T07:33:08;14.85;;;8.85;;
76292;SDS011;67256;51.154;4.164;2024-02-21T07:35:34;18.58;;;9.60;;
76292;SDS011;67256;51.154;4.164;2024-02-21T07:38:03;21.48;;;9.30;;
76292;SDS011;67256;51.154;4.164;2024-02-21T07:40:30;14.35;;;9.02;;
76292;SDS011;67256;51.154;4.164;2024-02-21T07:42:56;14.43;;;8.35;;
76292;SDS011;67256;51.154;4.164;2024-02-21T07:45:21;14.80;;;8.57;;
76292;SDS011;67256;51.154;4.164;2024-02-21T07:47:49;16.85;;;8.82;;
76292;SDS011;67256;51.154;4.164;2024-02-21T07:50:15;17.25;;;8.43;;
76292;SDS011;67256;51.154;4.164;2024-02-21T07:52:42;14.75;;;8.13;;
76292;SDS011;67256;51.154;4.164;2024-02-21T07:55:08;13.30;;;8.98;;
76292;SDS011;67256;51.154;4.164;2024-02-21T07:57:35;13.63;;;7.72;;
76292;SDS011;67256;51.154;4.164;2024-02-21T08:00:01;15.90;;;8.60;;
76292;SDS011;67256;51.154;4.164;2024-02-21T08:02:29;13.40;;;8.13;;
76292;SDS011;67256;51.154;4.164;2024-02-21T08:04:54;16.52;;;8.40;;
76292;SDS011;67256;51.154;4.164;2024-02-21T08:07:20;12.00;;;9.18;;
76292;SDS011;67256;51.154;4.164;2024-02-21T08:09:46;15.93;;;8.73;;
76292;SDS011;67256;51.154;4.164;2024-02-21T08:12:12;13.70;;;7.88;;
76292;SDS011;67256;51.154;4.164;2024-02-21T08:14:37;13.38;;;7.43;;
76292;SDS011;67256;51.154;4.164;2024-02-21T08:17:03;17.77;;;8.88;;
76292;SDS011;67256;51.154;4.164;2024-02-21T08:19:29;13.52;;;7.95;;
76292;SDS011;67256;51.154;4.164;2024-02-21T08:21:55;14.02;;;8.02;;
76292;SDS011;67256;51.154;4.164;2024-02-21T08:24:21;12.25;;;8.15;;
76292;SDS011;67256;51.154;4.164;2024-02-21T08:26:48;21.33;;;9.10;;
76292;SDS011;67256;51.154;4.164;2024-02-21T08:29:14;13.07;;;7.80;;
76292;SDS011;67256;51.154;4.164;2024-02-21T08:31:39;14.93;;;7.50;;
76292;SDS011;67256;51.154;4.164;2024-02-21T08:34:05;15.77;;;8.23;;
76292;SDS011;67256;51.154;4.164;2024-02-21T08:36:31;14.93;;;7.88;;
76292;SDS011;67256;51.154;4.164;2024-02-21T08:41:30;15.65;;;8.02;;
76292;SDS011;67256;51.154;4.164;2024-02-21T08:43:56;13.27;;;8.25;;
76292;SDS011;67256;51.154;4.164;2024-02-21T08:46:24;14.50;;;9.32;;
76292;SDS011;67256;51.154;4.164;2024-02-21T08:48:51;12.90;;;8.88;;
76292;SDS011;67256;51.154;4.164;2024-02-21T08:51:18;11.00;;;8.13;;
76292;SDS011;67256;51.154;4.164;2024-02-21T08:53:44;13.23;;;8.70;;
76292;SDS011;67256;51.154;4.164;2024-02-21T08:56:11;18.73;;;8.95;;
76292;SDS011;67256;51.154;4.164;2024-02-21T08:58:37;18.40;;;10.00;;
76292;SDS011;67256;51.154;4.164;2024-02-21T09:01:04;15.98;;;9.63;;
76292;SDS011;67256;51.154;4.164;2024-02-21T09:03:33;19.60;;;9.35;;
76292;SDS011;67256;51.154;4.164;2024-02-21T09:05:59;16.17;;;9.30;;
76292;SDS011;67256;51.154;4.164;2024-02-21T09:08:25;13.82;;;8.90;;
76292;SDS011;67256;51.154;4.164;2024-02-21T09:10:52;15.73;;;9.68;;
76292;SDS011;67256;51.154;4.164;2024-02-21T09:13:18;15.05;;;8.57;;
76292;SDS011;67256;51.154;4.164;2024-02-21T09:15:44;14.43;;;8.77;;
76292;SDS011;67256;51.154;4.164;2024-02-21T09:18:10;12.10;;;7.15;;
76292;SDS011;67256;51.154;4.164;2024-02-21T09:20:36;14.88;;;8.15;;
76292;SDS011;67256;51.154;4.164;2024-02-21T09:23:01;18.25;;;8.20;;
76292;SDS011;67256;51.154;4.164;2024-02-21T09:25:27;18.02;;;8.35;;
76292;SDS011;67256;51.154;4.164;2024-02-21T09:27:54;14.55;;;8.63;;
76292;SDS011;67256;51.154;4.164;2024-02-21T09:30:20;17.60;;;8.32;;
76292;SDS011;67256;51.154;4.164;2024-02-21T09:32:46;12.25;;;6.90;;
76292;SDS011;67256;51.154;4.164;2024-02-21T09:35:12;13.95;;;7.60;;
76292;SDS011;67256;51.154;4.164;2024-02-21T09:37:38;15.82;;;7.45;;
76292;SDS011;67256;51.154;4.164;2024-02-21T09:40:04;11.45;;;6.95;;
76292;SDS011;67256;51.154;4.164;2024-02-21T09:42:40;12.18;;;7.40;;
76292;SDS011;67256;51.154;4.164;2024-02-21T09:45:23;18.65;;;8.27;;
76292;SDS011;67256;51.154;4.164;2024-02-21T09:50:34;15.10;;;7.20;;
76292;SDS011;67256;51.154;4.164;2024-02-21T09:53:01;13.80;;;8.20;;
76292;SDS011;67256;51.154;4.164;2024-02-21T09:55:29;16.83;;;7.28;;
76292;SDS011;67256;51.154;4.164;2024-02-21T09:57:59;16.55;;;9.05;;
76292;SDS011;67256;51.154;4.164;2024-02-21T10:00:27;11.52;;;7.50;;
76292;SDS011;67256;51.154;4.164;2024-02-21T10:02:53;15.48;;;6.60;;
76292;SDS011;67256;51.154;4.164;2024-02-21T10:05:19;17.88;;;7.32;;
76292;SDS011;67256;51.154;4.164;2024-02-21T10:07:45;13.15;;;7.22;;
76292;SDS011;67256;51.154;4.164;2024-02-21T10:10:11;19.20;;;6.90;;
76292;SDS011;67256;51.154;4.164;2024-02-21T10:12:47;12.13;;;6.30;;
76292;SDS011;67256;51.154;4.164;2024-02-21T10:15:20;11.50;;;5.72;;
76292;SDS011;67256;51.154;4.164;2024-02-21T10:17:47;10.18;;;5.75;;
76292;SDS011;67256;51.154;4.164;2024-02-21T10:20:13;13.80;;;6.07;;
76292;SDS011;67256;51.154;4.164;2024-02-21T10:22:40;12.10;;;5.65;;
76292;SDS011;67256;51.154;4.164;2024-02-21T10:25:06;13.15;;;5.50;;
76292;SDS011;67256;51.154;4.164;2024-02-21T10:27:38;10.80;;;4.93;;
76292;SDS011;67256;51.154;4.164;2024-02-21T10:30:05;9.90;;;5.53;;
76292;SDS011;67256;51.154;4.164;2024-02-21T10:32:50;10.85;;;5.55;;
76292;SDS011;67256;51.154;4.164;2024-02-21T10:37:54;8.80;;;5.22;;
76292;SDS011;67256;51.154;4.164;2024-02-21T10:42:58;11.80;;;5.22;;
76292;SDS011;67256;51.154;4.164;2024-02-21T10:45:29;12.95;;;4.63;;
76292;SDS011;67256;51.154;4.164;2024-02-21T10:48:06;12.38;;;5.13;;
76292;SDS011;67256;51.154;4.164;2024-02-21T10:53:38;11.50;;;4.65;;
76292;SDS011;67256;51.154;4.164;2024-02-21T10:58:44;12.57;;;5.13;;
76292;SDS011;67256;51.154;4.164;2024-02-21T11:01:11;12.90;;;5.90;;
76292;SDS011;67256;51.154;4.164;2024-02-21T11:03:40;9.40;;;4.25;;
76292;SDS011;67256;51.154;4.164;2024-02-21T11:06:09;10.55;;;4.35;;
76292;SDS011;67256;51.154;4.164;2024-02-21T11:08:36;12.10;;;4.82;;
76292;SDS011;67256;51.154;4.164;2024-02-21T11:11:02;12.43;;;4.40;;
76292;SDS011;67256;51.154;4.164;2024-02-21T11:13:34;8.13;;;5.22;;
76292;SDS011;67256;51.154;4.164;2024-02-21T11:16:10;13.98;;;4.60;;
76292;SDS011;67256;51.154;4.164;2024-02-21T11:18:37;7.28;;;4.60;;
76292;SDS011;67256;51.154;4.164;2024-02-21T11:21:03;12.20;;;4.75;;
76292;SDS011;67256;51.154;4.164;2024-02-21T11:23:30;7.97;;;4.13;;
76292;SDS011;67256;51.154;4.164;2024-02-21T11:26:08;16.13;;;4.20;;
76292;SDS011;67256;51.154;4.164;2024-02-21T11:28:35;12.55;;;4.63;;
76292;SDS011;67256;51.154;4.164;2024-02-21T11:31:07;12.87;;;4.27;;
76292;SDS011;67256;51.154;4.164;2024-02-21T11:33:34;11.10;;;4.18;;
76292;SDS011;67256;51.154;4.164;2024-02-21T11:36:01;11.40;;;4.47;;
76292;SDS011;67256;51.154;4.164;2024-02-21T11:38:30;9.17;;;4.20;;
76292;SDS011;67256;51.154;4.164;2024-02-21T11:40:55;10.13;;;4.30;;
76292;SDS011;67256;51.154;4.164;2024-02-21T11:43:21;11.50;;;3.90;;
76292;SDS011;67256;51.154;4.164;2024-02-21T11:45:47;10.98;;;4.53;;
76292;SDS011;67256;51.154;4.164;2024-02-21T11:48:13;14.52;;;4.32;;
76292;SDS011;67256;51.154;4.164;2024-02-21T11:50:39;9.20;;;3.55;;
76292;SDS011;67256;51.154;4.164;2024-02-21T11:53:05;12.02;;;3.90;;
76292;SDS011;67256;51.154;4.164;2024-02-21T11:55:31;10.95;;;3.92;;
76292;SDS011;67256;51.154;4.164;2024-02-21T11:57:56;9.65;;;4.32;;
76292;SDS011;67256;51.154;4.164;2024-02-21T12:00:22;13.40;;;5.07;;
76292;SDS011;67256;51.154;4.164;2024-02-21T12:02:51;10.13;;;4.70;;
76292;SDS011;67256;51.154;4.164;2024-02-21T12:05:18;10.60;;;3.17;;
76292;SDS011;67256;51.154;4.164;2024-02-21T12:07:45;8.75;;;3.88;;
76292;SDS011;67256;51.154;4.164;2024-02-21T12:10:11;10.32;;;3.97;;
76292;SDS011;67256;51.154;4.164;2024-02-21T12:12:38;9.80;;;4.13;;
76292;SDS011;67256;51.154;4.164;2024-02-21T12:15:04;8.27;;;3.40;;
76292;SDS011;67256;51.154;4.164;2024-02-21T12:17:34;11.55;;;3.65;;
76292;SDS011;67256;51.154;4.164;2024-02-21T12:20:04;9.63;;;4.38;;
76292;SDS011;67256;51.154;4.164;2024-02-21T12:22:34;13.20;;;4.43;;
76292;SDS011;67256;51.154;4.164;2024-02-21T12:25:04;10.20;;;4.30;;
76292;SDS011;67256;51.154;4.164;2024-02-21T12:27:40;9.10;;;4.13;;
76292;SDS011;67256;51.154;4.164;2024-02-21T12:30:06;7.82;;;4.75;;
76292;SDS011;67256;51.154;4.164;2024-02-21T12:32:35;7.22;;;3.92;;
76292;SDS011;67256;51.154;4.164;2024-02-21T12:35:01;6.97;;;3.83;;
76292;SDS011;67256;51.154;4.164;2024-02-21T12:37:27;7.00;;;3.53;;
76292;SDS011;67256;51.154;4.164;2024-02-21T12:39:54;11.32;;;3.53;;
76292;SDS011;67256;51.154;4.164;2024-02-21T12:42:19;14.75;;;4.00;;
76292;SDS011;67256;51.154;4.164;2024-02-21T12:44:45;9.38;;;3.58;;
76292;SDS011;67256;51.154;4.164;2024-02-21T12:47:11;10.55;;;3.53;;
76292;SDS011;67256;51.154;4.164;2024-02-21T12:49:37;9.57;;;3.83;;
76292;SDS011;67256;51.154;4.164;2024-02-21T12:52:03;6.93;;;3.50;;
76292;SDS011;67256;51.154;4.164;2024-02-21T12:54:29;13.20;;;3.97;;
76292;SDS011;67256;51.154;4.164;2024-02-21T12:56:56;9.10;;;3.80;;
76292;SDS011;67256;51.154;4.164;2024-02-21T12:59:22;8.60;;;4.00;;
76292;SDS011;67256;51.154;4.164;2024-02-21T13:01:48;10.70;;;3.85;;
76292;SDS011;67256;51.154;4.164;2024-02-21T13:04:14;10.68;;;3.25;;
76292;SDS011;67256;51.154;4.164;2024-02-21T13:06:39;11.18;;;4.07;;
76292;SDS011;67256;51.154;4.164;2024-02-21T13:09:05;7.85;;;3.75;;
76292;SDS011;67256;51.154;4.164;2024-02-21T13:11:34;9.07;;;3.50;;
76292;SDS011;67256;51.154;4.164;2024-02-21T13:14:00;9.48;;;3.40;;
76292;SDS011;67256;51.154;4.164;2024-02-21T13:16:25;8.30;;;3.80;;
76292;SDS011;67256;51.154;4.164;2024-02-21T13:18:52;12.35;;;4.78;;
76292;SDS011;67256;51.154;4.164;2024-02-21T13:21:18;17.73;;;4.05;;
76292;SDS011;67256;51.154;4.164;2024-02-21T13:23:43;7.72;;;3.85;;
76292;SDS011;67256;51.154;4.164;2024-02-21T13:26:09;6.57;;;3.85;;
76292;SDS011;67256;51.154;4.164;2024-02-21T13:28:36;8.50;;;4.75;;
76292;SDS011;67256;51.154;4.164;2024-02-21T13:31:02;9.35;;;3.85;;
76292;SDS011;67256;51.154;4.164;2024-02-21T13:33:28;12.80;;;3.95;;
76292;SDS011;67256;51.154;4.164;2024-02-21T13:35:54;7.43;;;3.55;;
76292;SDS011;67256;51.154;4.164;2024-02-21T13:38:20;10.55;;;3.67;;
76292;SDS011;67256;51.154;4.164;2024-02-21T13:40:46;12.10;;;4.65;;
76292;SDS011;67256;51.154;4.164;2024-02-21T13:43:11;9.57;;;3.80;;
76292;SDS011;67256;51.154;4.164;2024-02-21T13:45:38;13.95;;;4.53;;
76292;SDS011;67256;51.154;4.164;2024-02-21T13:48:06;11.10;;;4.72;;
76292;SDS011;67256;51.154;4.164;2024-02-21T13:50:35;9.02;;;4.30;;
76292;SDS011;67256;51.154;4.164;2024-02-21T13:53:07;12.75;;;4.60;;
76292;SDS011;67256;51.154;4.164;2024-02-21T13:55:34;9.85;;;5.28;;
76292;SDS011;67256;51.154;4.164;2024-02-21T13:58:00;7.60;;;4.00;;
76292;SDS011;67256;51.154;4.164;2024-02-21T14:00:26;13.10;;;4.95;;
76292;SDS011;67256;51.154;4.164;2024-02-21T14:02:52;12.90;;;4.75;;
76292;SDS011;67256;51.154;4.164;2024-02-21T14:05:19;9.23;;;4.43;;
76292;SDS011;67256;51.154;4.164;2024-02-21T14:07:47;8.23;;;4.53;;
76292;SDS011;67256;51.154;4.164;2024-02-21T14:10:12;11.35;;;4.82;;
76292;SDS011;67256;51.154;4.164;2024-02-21T14:12:38;11.32;;;4.70;;
76292;SDS011;67256;51.154;4.164;2024-02-21T14:15:05;9.48;;;4.93;;
76292;SDS011;67256;51.154;4.164;2024-02-21T14:17:31;9.98;;;4.93;;
76292;SDS011;67256;51.154;4.164;2024-02-21T14:19:57;10.40;;;4.57;;
76292;SDS011;67256;51.154;4.164;2024-02-21T14:22:23;8.35;;;4.60;;
76292;SDS011;67256;51.154;4.164;2024-02-21T14:24:48;7.05;;;4.60;;
76292;SDS011;67256;51.154;4.164;2024-02-21T14:27:14;8.75;;;4.75;;
76292;SDS011;67256;51.154;4.164;2024-02-21T14:29:40;10.80;;;5.28;;
76292;SDS011;67256;51.154;4.164;2024-02-21T14:32:06;6.55;;;4.43;;
76292;SDS011;67256;51.154;4.164;2024-02-21T14:34:34;10.15;;;5.10;;
76292;SDS011;67256;51.154;4.164;2024-02-21T14:37:00;11.50;;;5.43;;
76292;SDS011;67256;51.154;4.164;2024-02-21T14:39:26;12.70;;;4.97;;
76292;SDS011;67256;51.154;4.164;2024-02-21T14:41:51;8.95;;;4.95;;
76292;SDS011;67256;51.154;4.164;2024-02-21T14:44:18;9.65;;;5.13;;
76292;SDS011;67256;51.154;4.164;2024-02-21T14:46:44;8.60;;;5.53;;